sensor_id;sensor_type;location;lat;lon;timestamp;temperature;humidity
36924;DHT22;22841;50.252;18.688;2024-02-26T00:01:54;4.60;99.90
36924;DHT22;22841;50.252;18.688;2024-02-26T00:04:21;4.60;99.90
36924;DHT22;22841;50.252;18.688;2024-02-26T00:06:47;4.70;99.90
36924;DHT22;22841;50.252;18.688;2024-02-26T00:09:16;4.70;99.90
36924;DHT22;22841;50.252;18.688;2024-02-26T00:11:42;4.60;99.90
36924;DHT22;22841;50.252;18.688;2024-02-26T00:14:08;4.50;99.90
36924;DHT22;22841;50.252;18.688;2024-02-26T00:16:34;4.50;99.90
36924;DHT22;22841;50.252;18.688;2024-02-26T00:19:00;4.60;99.90
36924;DHT22;22841;50.252;18.688;2024-02-26T00:21:27;4.40;99.90
36924;DHT22;22841;50.252;18.688;2024-02-26T00:23:54;4.50;99.90
36924;DHT22;22841;50.252;18.688;2024-02-26T00:26:20;4.40;99.90
36924;DHT22;22841;50.252;18.688;2024-02-26T00:28:46;4.30;99.90
36924;DHT22;22841;50.252;18.688;2024-02-26T00:31:12;4.40;99.90
36924;DHT22;22841;50.252;18.688;2024-02-26T00:33:38;4.40;99.90
36924;DHT22;22841;50.252;18.688;2024-02-26T00:36:05;4.30;99.90
36924;DHT22;22841;50.252;18.688;2024-02-26T00:38:31;4.30;99.90
36924;DHT22;22841;50.252;18.688;2024-02-26T00:40:57;4.30;99.90
36924;DHT22;22841;50.252;18.688;2024-02-26T00:43:23;4.30;99.90
36924;DHT22;22841;50.252;18.688;2024-02-26T00:45:49;4.30;99.90
36924;DHT22;22841;50.252;18.688;2024-02-26T00:48:15;4.30;99.90
36924;DHT22;22841;50.252;18.688;2024-02-26T00:50:41;4.30;99.90
36924;DHT22;22841;50.252;18.688;2024-02-26T00:53:08;4.30;99.90
36924;DHT22;22841;50.252;18.688;2024-02-26T00:55:34;4.30;99.90
36924;DHT22;22841;50.252;18.688;2024-02-26T00:58:01;4.20;99.90
36924;DHT22;22841;50.252;18.688;2024-02-26T01:00:27;4.20;99.90
36924;DHT22;22841;50.252;18.688;2024-02-26T01:02:53;4.20;99.90
36924;DHT22;22841;50.252;18.688;2024-02-26T01:05:19;4.10;99.90
36924;DHT22;22841;50.252;18.688;2024-02-26T01:07:45;4.10;99.90
36924;DHT22;22841;50.252;18.688;2024-02-26T01:10:11;4.10;99.90
36924;DHT22;22841;50.252;18.688;2024-02-26T01:12:37;4.00;99.90
36924;DHT22;22841;50.252;18.688;2024-02-26T01:15:04;4.10;99.90
36924;DHT22;22841;50.252;18.688;2024-02-26T01:17:30;4.10;99.90
36924;DHT22;22841;50.252;18.688;2024-02-26T01:19:56;4.10;99.90
36924;DHT22;22841;50.252;18.688;2024-02-26T01:22:22;4.00;99.90
36924;DHT22;22841;50.252;18.688;2024-02-26T01:24:48;4.00;99.90
36924;DHT22;22841;50.252;18.688;2024-02-26T01:27:15;4.00;99.90
36924;DHT22;22841;50.252;18.688;2024-02-26T01:29:41;4.00;99.90
36924;DHT22;22841;50.252;18.688;2024-02-26T01:32:08;4.00;99.90
36924;DHT22;22841;50.252;18.688;2024-02-26T01:34:34;3.90;99.90
36924;DHT22;22841;50.252;18.688;2024-02-26T01:37:02;3.90;99.90
36924;DHT22;22841;50.252;18.688;2024-02-26T01:39:29;3.90;99.90
36924;DHT22;22841;50.252;18.688;2024-02-26T01:41:56;3.80;99.90
36924;DHT22;22841;50.252;18.688;2024-02-26T01:44:22;3.90;99.90
36924;DHT22;22841;50.252;18.688;2024-02-26T01:46:49;3.80;99.90
36924;DHT22;22841;50.252;18.688;2024-02-26T01:49:15;3.80;99.90
36924;DHT22;22841;50.252;18.688;2024-02-26T01:51:43;3.80;99.90
36924;DHT22;22841;50.252;18.688;2024-02-26T01:54:10;3.80;99.90
36924;DHT22;22841;50.252;18.688;2024-02-26T01:56:37;3.80;99.90
36924;DHT22;22841;50.252;18.688;2024-02-26T01:59:05;3.80;99.90
36924;DHT22;22841;50.252;18.688;2024-02-26T02:01:33;3.80;99.90
36924;DHT22;22841;50.252;18.688;2024-02-26T02:04:00;3.80;99.90
36924;DHT22;22841;50.252;18.688;2024-02-26T02:06:27;3.80;99.90
36924;DHT22;22841;50.252;18.688;2024-02-26T02:08:56;3.70;99.90
36924;DHT22;22841;50.252;18.688;2024-02-26T02:11:22;3.90;99.90
36924;DHT22;22841;50.252;18.688;2024-02-26T02:13:49;3.70;99.90
36924;DHT22;22841;50.252;18.688;2024-02-26T02:16:15;3.70;99.90
36924;DHT22;22841;50.252;18.688;2024-02-26T02:18:41;3.70;99.90
36924;DHT22;22841;50.252;18.688;2024-02-26T02:21:07;3.80;99.90
36924;DHT22;22841;50.252;18.688;2024-02-26T02:23:33;3.60;99.90
36924;DHT22;22841;50.252;18.688;2024-02-26T02:26:00;3.60;99.90
36924;DHT22;22841;50.252;18.688;2024-02-26T02:28:27;3.70;99.90
36924;DHT22;22841;50.252;18.688;2024-02-26T02:30:54;3.60;99.90
36924;DHT22;22841;50.252;18.688;2024-02-26T02:33:21;3.60;99.90
36924;DHT22;22841;50.252;18.688;2024-02-26T02:35:47;3.70;99.90
36924;DHT22;22841;50.252;18.688;2024-02-26T02:38:13;3.50;99.90
36924;DHT22;22841;50.252;18.688;2024-02-26T02:40:39;3.50;99.90
36924;DHT22;22841;50.252;18.688;2024-02-26T02:43:05;3.50;99.90
36924;DHT22;22841;50.252;18.688;2024-02-26T02:45:31;3.50;99.90
36924;DHT22;22841;50.252;18.688;2024-02-26T02:47:57;3.50;99.90
36924;DHT22;22841;50.252;18.688;2024-02-26T02:50:23;3.50;99.90
36924;DHT22;22841;50.252;18.688;2024-02-26T02:52:50;3.40;99.90
36924;DHT22;22841;50.252;18.688;2024-02-26T02:55:16;3.30;99.90
36924;DHT22;22841;50.252;18.688;2024-02-26T02:57:42;3.30;99.90
36924;DHT22;22841;50.252;18.688;2024-02-26T03:00:09;3.30;99.90
36924;DHT22;22841;50.252;18.688;2024-02-26T03:02:36;3.30;99.90
36924;DHT22;22841;50.252;18.688;2024-02-26T03:05:05;3.20;99.90
36924;DHT22;22841;50.252;18.688;2024-02-26T03:07:31;3.20;99.90
36924;DHT22;22841;50.252;18.688;2024-02-26T03:09:58;3.20;99.90
36924;DHT22;22841;50.252;18.688;2024-02-26T03:12:24;3.20;99.90
36924;DHT22;22841;50.252;18.688;2024-02-26T03:14:50;3.10;99.90
36924;DHT22;22841;50.252;18.688;2024-02-26T03:17:17;3.10;99.90
36924;DHT22;22841;50.252;18.688;2024-02-26T03:19:44;3.10;99.90
36924;DHT22;22841;50.252;18.688;2024-02-26T03:22:13;3.20;99.90
36924;DHT22;22841;50.252;18.688;2024-02-26T03:24:39;3.10;99.90
36924;DHT22;22841;50.252;18.688;2024-02-26T03:27:05;3.30;99.90
36924;DHT22;22841;50.252;18.688;2024-02-26T04:10:34;2.90;99.90
36924;DHT22;22841;50.252;18.688;2024-02-26T04:20:54;3.00;99.90
36924;DHT22;22841;50.252;18.688;2024-02-26T04:23:20;3.00;99.90
36924;DHT22;22841;50.252;18.688;2024-02-26T04:25:46;3.00;99.90
36924;DHT22;22841;50.252;18.688;2024-02-26T04:28:13;3.00;99.90
36924;DHT22;22841;50.252;18.688;2024-02-26T04:30:39;3.00;99.90
36924;DHT22;22841;50.252;18.688;2024-02-26T04:36:34;3.00;99.90
36924;DHT22;22841;50.252;18.688;2024-02-26T04:39:00;3.10;99.90
36924;DHT22;22841;50.252;18.688;2024-02-26T04:41:26;3.00;99.90
36924;DHT22;22841;50.252;18.688;2024-02-26T04:46:28;2.90;99.90
36924;DHT22;22841;50.252;18.688;2024-02-26T04:52:07;3.00;99.90
36924;DHT22;22841;50.252;18.688;2024-02-26T05:15:26;2.70;99.90
36924;DHT22;22841;50.252;18.688;2024-02-26T05:29:15;2.80;99.90
36924;DHT22;22841;50.252;18.688;2024-02-26T05:31:44;2.90;99.90
36924;DHT22;22841;50.252;18.688;2024-02-26T05:34:10;2.70;99.90
36924;DHT22;22841;50.252;18.688;2024-02-26T05:36:37;2.80;99.90
36924;DHT22;22841;50.252;18.688;2024-02-26T05:39:03;2.80;99.90
36924;DHT22;22841;50.252;18.688;2024-02-26T05:46:41;2.80;99.90
36924;DHT22;22841;50.252;18.688;2024-02-26T05:49:08;2.80;99.90
36924;DHT22;22841;50.252;18.688;2024-02-26T05:51:34;2.80;99.90
36924;DHT22;22841;50.252;18.688;2024-02-26T05:54:00;2.80;99.90
36924;DHT22;22841;50.252;18.688;2024-02-26T05:56:26;2.80;99.90
36924;DHT22;22841;50.252;18.688;2024-02-26T06:01:28;2.80;99.90
36924;DHT22;22841;50.252;18.688;2024-02-26T06:06:38;2.80;99.90
36924;DHT22;22841;50.252;18.688;2024-02-26T06:09:05;3.00;99.90
36924;DHT22;22841;50.252;18.688;2024-02-26T06:14:18;2.90;99.90
36924;DHT22;22841;50.252;18.688;2024-02-26T06:16:45;2.90;99.90
36924;DHT22;22841;50.252;18.688;2024-02-26T06:19:11;2.90;99.90
36924;DHT22;22841;50.252;18.688;2024-02-26T06:21:37;3.00;99.90
36924;DHT22;22841;50.252;18.688;2024-02-26T06:24:04;3.00;99.90
36924;DHT22;22841;50.252;18.688;2024-02-26T06:26:30;3.00;99.90
36924;DHT22;22841;50.252;18.688;2024-02-26T06:28:56;3.10;99.90
36924;DHT22;22841;50.252;18.688;2024-02-26T06:31:23;3.10;99.90
36924;DHT22;22841;50.252;18.688;2024-02-26T06:33:49;3.20;99.90
36924;DHT22;22841;50.252;18.688;2024-02-26T06:36:16;3.10;99.90
36924;DHT22;22841;50.252;18.688;2024-02-26T06:38:42;3.10;99.90
36924;DHT22;22841;50.252;18.688;2024-02-26T06:41:08;3.00;99.90
36924;DHT22;22841;50.252;18.688;2024-02-26T06:43:35;3.30;99.90
36924;DHT22;22841;50.252;18.688;2024-02-26T06:46:01;3.30;99.90
36924;DHT22;22841;50.252;18.688;2024-02-26T06:48:27;3.30;99.90
36924;DHT22;22841;50.252;18.688;2024-02-26T06:50:53;3.20;99.90
36924;DHT22;22841;50.252;18.688;2024-02-26T06:53:19;3.30;99.90
36924;DHT22;22841;50.252;18.688;2024-02-26T06:55:45;3.50;99.90
36924;DHT22;22841;50.252;18.688;2024-02-26T06:58:12;3.40;99.90
36924;DHT22;22841;50.252;18.688;2024-02-26T07:00:38;3.40;99.90
36924;DHT22;22841;50.252;18.688;2024-02-26T07:03:04;3.50;99.90
36924;DHT22;22841;50.252;18.688;2024-02-26T07:05:30;3.50;99.90
36924;DHT22;22841;50.252;18.688;2024-02-26T07:07:57;3.60;99.90
36924;DHT22;22841;50.252;18.688;2024-02-26T07:10:23;3.60;99.90
36924;DHT22;22841;50.252;18.688;2024-02-26T07:12:49;3.70;99.90
36924;DHT22;22841;50.252;18.688;2024-02-26T07:15:15;4.00;99.90
36924;DHT22;22841;50.252;18.688;2024-02-26T07:17:41;3.90;99.90
36924;DHT22;22841;50.252;18.688;2024-02-26T07:20:13;4.10;99.90
36924;DHT22;22841;50.252;18.688;2024-02-26T07:22:40;4.20;99.90
36924;DHT22;22841;50.252;18.688;2024-02-26T07:25:08;4.30;99.90
36924;DHT22;22841;50.252;18.688;2024-02-26T07:27:37;4.40;99.90
36924;DHT22;22841;50.252;18.688;2024-02-26T07:30:04;4.50;99.90
36924;DHT22;22841;50.252;18.688;2024-02-26T07:32:30;4.60;99.90
36924;DHT22;22841;50.252;18.688;2024-02-26T07:34:56;4.80;99.90
36924;DHT22;22841;50.252;18.688;2024-02-26T07:37:22;4.80;99.90
36924;DHT22;22841;50.252;18.688;2024-02-26T07:39:48;4.90;99.90
36924;DHT22;22841;50.252;18.688;2024-02-26T07:42:14;5.00;99.90
36924;DHT22;22841;50.252;18.688;2024-02-26T07:44:41;5.10;99.90
36924;DHT22;22841;50.252;18.688;2024-02-26T07:47:11;5.40;99.90
36924;DHT22;22841;50.252;18.688;2024-02-26T07:49:37;5.40;99.90
36924;DHT22;22841;50.252;18.688;2024-02-26T07:52:04;5.50;99.90
36924;DHT22;22841;50.252;18.688;2024-02-26T07:54:30;5.60;99.90
36924;DHT22;22841;50.252;18.688;2024-02-26T07:56:56;5.70;99.90
36924;DHT22;22841;50.252;18.688;2024-02-26T07:59:22;5.70;99.90
36924;DHT22;22841;50.252;18.688;2024-02-26T08:01:51;5.70;99.90
36924;DHT22;22841;50.252;18.688;2024-02-26T08:04:18;5.80;99.90
36924;DHT22;22841;50.252;18.688;2024-02-26T08:06:44;5.70;99.90
36924;DHT22;22841;50.252;18.688;2024-02-26T08:09:10;5.90;99.90
36924;DHT22;22841;50.252;18.688;2024-02-26T08:11:36;5.90;99.90
36924;DHT22;22841;50.252;18.688;2024-02-26T08:14:02;6.00;99.90
36924;DHT22;22841;50.252;18.688;2024-02-26T08:16:28;6.00;99.90
36924;DHT22;22841;50.252;18.688;2024-02-26T08:18:55;6.00;99.90
36924;DHT22;22841;50.252;18.688;2024-02-26T08:21:21;6.20;99.90
36924;DHT22;22841;50.252;18.688;2024-02-26T08:23:47;6.30;99.90
36924;DHT22;22841;50.252;18.688;2024-02-26T08:26:13;6.40;99.90
36924;DHT22;22841;50.252;18.688;2024-02-26T08:28:40;6.50;99.90
36924;DHT22;22841;50.252;18.688;2024-02-26T08:31:06;6.60;99.90
36924;DHT22;22841;50.252;18.688;2024-02-26T08:33:32;6.70;99.90
36924;DHT22;22841;50.252;18.688;2024-02-26T08:36:04;6.80;99.90
36924;DHT22;22841;50.252;18.688;2024-02-26T08:38:31;7.00;99.90
36924;DHT22;22841;50.252;18.688;2024-02-26T08:40:57;7.00;99.90
36924;DHT22;22841;50.252;18.688;2024-02-26T08:43:23;7.00;99.90
36924;DHT22;22841;50.252;18.688;2024-02-26T08:45:49;7.10;99.90
36924;DHT22;22841;50.252;18.688;2024-02-26T08:48:15;7.20;99.90
36924;DHT22;22841;50.252;18.688;2024-02-26T08:50:41;7.40;99.90
36924;DHT22;22841;50.252;18.688;2024-02-26T08:53:07;7.60;99.90
36924;DHT22;22841;50.252;18.688;2024-02-26T08:55:34;7.80;99.90
36924;DHT22;22841;50.252;18.688;2024-02-26T08:58:01;8.00;99.90
36924;DHT22;22841;50.252;18.688;2024-02-26T09:00:27;8.10;99.90
36924;DHT22;22841;50.252;18.688;2024-02-26T09:02:53;8.30;99.90
36924;DHT22;22841;50.252;18.688;2024-02-26T09:05:19;8.50;99.90
36924;DHT22;22841;50.252;18.688;2024-02-26T09:07:45;8.70;99.90
36924;DHT22;22841;50.252;18.688;2024-02-26T09:10:12;8.90;99.90
36924;DHT22;22841;50.252;18.688;2024-02-26T09:12:38;9.00;99.90
36924;DHT22;22841;50.252;18.688;2024-02-26T09:15:06;9.10;99.90
36924;DHT22;22841;50.252;18.688;2024-02-26T09:17:33;9.20;99.90
36924;DHT22;22841;50.252;18.688;2024-02-26T09:19:59;9.40;99.90
36924;DHT22;22841;50.252;18.688;2024-02-26T09:22:25;9.50;99.90
36924;DHT22;22841;50.252;18.688;2024-02-26T09:24:51;9.60;99.90
36924;DHT22;22841;50.252;18.688;2024-02-26T09:27:19;9.70;99.90
36924;DHT22;22841;50.252;18.688;2024-02-26T09:29:45;9.80;99.90
36924;DHT22;22841;50.252;18.688;2024-02-26T09:32:12;9.90;99.90
36924;DHT22;22841;50.252;18.688;2024-02-26T09:34:40;10.10;99.90
36924;DHT22;22841;50.252;18.688;2024-02-26T09:37:06;10.20;99.90
36924;DHT22;22841;50.252;18.688;2024-02-26T09:39:32;10.30;99.90
36924;DHT22;22841;50.252;18.688;2024-02-26T09:42:01;10.40;99.90
36924;DHT22;22841;50.252;18.688;2024-02-26T09:44:30;10.50;99.90
36924;DHT22;22841;50.252;18.688;2024-02-26T09:46:59;10.40;99.90
36924;DHT22;22841;50.252;18.688;2024-02-26T09:49:26;10.30;99.90
36924;DHT22;22841;50.252;18.688;2024-02-26T09:51:54;10.20;99.90
36924;DHT22;22841;50.252;18.688;2024-02-26T09:54:24;10.10;99.90
36924;DHT22;22841;50.252;18.688;2024-02-26T09:56:53;10.00;99.90
36924;DHT22;22841;50.252;18.688;2024-02-26T09:59:22;10.00;99.90
36924;DHT22;22841;50.252;18.688;2024-02-26T10:01:48;10.10;99.90
36924;DHT22;22841;50.252;18.688;2024-02-26T10:04:15;10.20;99.90
36924;DHT22;22841;50.252;18.688;2024-02-26T10:06:41;10.30;99.90
36924;DHT22;22841;50.252;18.688;2024-02-26T10:09:10;10.40;99.90
36924;DHT22;22841;50.252;18.688;2024-02-26T10:11:38;10.50;99.90
36924;DHT22;22841;50.252;18.688;2024-02-26T10:14:05;10.60;99.90
36924;DHT22;22841;50.252;18.688;2024-02-26T10:16:32;10.70;99.90
36924;DHT22;22841;50.252;18.688;2024-02-26T10:18:59;10.70;99.90
36924;DHT22;22841;50.252;18.688;2024-02-26T10:21:26;10.80;99.90
36924;DHT22;22841;50.252;18.688;2024-02-26T10:23:52;10.90;99.90
36924;DHT22;22841;50.252;18.688;2024-02-26T10:26:19;10.90;98.50
36924;DHT22;22841;50.252;18.688;2024-02-26T10:28:45;10.90;99.90
36924;DHT22;22841;50.252;18.688;2024-02-26T10:31:13;11.10;99.90
36924;DHT22;22841;50.252;18.688;2024-02-26T10:33:41;11.10;98.20
36924;DHT22;22841;50.252;18.688;2024-02-26T10:36:08;11.20;99.90
36924;DHT22;22841;50.252;18.688;2024-02-26T10:38:37;11.20;99.20
36924;DHT22;22841;50.252;18.688;2024-02-26T10:41:05;11.40;96.50
36924;DHT22;22841;50.252;18.688;2024-02-26T10:43:32;11.50;98.90
36924;DHT22;22841;50.252;18.688;2024-02-26T10:45:58;11.50;96.00
36924;DHT22;22841;50.252;18.688;2024-02-26T10:48:24;11.50;96.90
36924;DHT22;22841;50.252;18.688;2024-02-26T10:50:50;11.50;99.00
36924;DHT22;22841;50.252;18.688;2024-02-26T10:53:19;11.60;97.40
36924;DHT22;22841;50.252;18.688;2024-02-26T10:55:54;11.60;93.50
36924;DHT22;22841;50.252;18.688;2024-02-26T10:58:21;11.60;92.50
36924;DHT22;22841;50.252;18.688;2024-02-26T11:00:50;11.60;94.40
36924;DHT22;22841;50.252;18.688;2024-02-26T11:03:18;11.70;94.90
36924;DHT22;22841;50.252;18.688;2024-02-26T11:05:49;11.70;93.90
36924;DHT22;22841;50.252;18.688;2024-02-26T11:08:19;11.70;95.20
36924;DHT22;22841;50.252;18.688;2024-02-26T11:10:48;12.10;90.70
36924;DHT22;22841;50.252;18.688;2024-02-26T11:13:17;12.10;88.20
36924;DHT22;22841;50.252;18.688;2024-02-26T11:15:46;12.20;88.90
36924;DHT22;22841;50.252;18.688;2024-02-26T11:18:19;12.10;92.90
36924;DHT22;22841;50.252;18.688;2024-02-26T11:20:46;12.30;91.50
36924;DHT22;22841;50.252;18.688;2024-02-26T11:23:12;12.40;86.70
36924;DHT22;22841;50.252;18.688;2024-02-26T11:25:38;12.50;91.10
36924;DHT22;22841;50.252;18.688;2024-02-26T11:28:15;12.50;83.80
36924;DHT22;22841;50.252;18.688;2024-02-26T11:30:46;12.40;90.90
36924;DHT22;22841;50.252;18.688;2024-02-26T11:33:14;12.30;92.10
36924;DHT22;22841;50.252;18.688;2024-02-26T11:35:40;12.30;91.60
36924;DHT22;22841;50.252;18.688;2024-02-26T11:38:07;12.40;88.40
36924;DHT22;22841;50.252;18.688;2024-02-26T11:40:37;12.30;90.50
36924;DHT22;22841;50.252;18.688;2024-02-26T11:43:05;12.40;91.10
36924;DHT22;22841;50.252;18.688;2024-02-26T11:48:12;12.60;87.10
36924;DHT22;22841;50.252;18.688;2024-02-26T11:50:42;12.60;89.30
36924;DHT22;22841;50.252;18.688;2024-02-26T11:53:47;12.50;90.70
36924;DHT22;22841;50.252;18.688;2024-02-26T11:56:20;12.50;91.10
36924;DHT22;22841;50.252;18.688;2024-02-26T11:59:01;12.60;90.50
36924;DHT22;22841;50.252;18.688;2024-02-26T12:04:12;12.70;89.20
36924;DHT22;22841;50.252;18.688;2024-02-26T12:06:58;12.70;92.40
36924;DHT22;22841;50.252;18.688;2024-02-26T12:09:41;12.90;85.10
36924;DHT22;22841;50.252;18.688;2024-02-26T12:12:08;12.90;81.70
36924;DHT22;22841;50.252;18.688;2024-02-26T12:14:41;13.10;85.90
36924;DHT22;22841;50.252;18.688;2024-02-26T12:17:22;13.00;82.50
36924;DHT22;22841;50.252;18.688;2024-02-26T12:19:49;13.00;85.10
36924;DHT22;22841;50.252;18.688;2024-02-26T12:22:16;13.10;84.90
36924;DHT22;22841;50.252;18.688;2024-02-26T12:24:43;13.20;76.20
36924;DHT22;22841;50.252;18.688;2024-02-26T12:27:09;13.20;85.20
36924;DHT22;22841;50.252;18.688;2024-02-26T12:29:35;13.30;84.60
36924;DHT22;22841;50.252;18.688;2024-02-26T12:32:02;13.40;80.20
36924;DHT22;22841;50.252;18.688;2024-02-26T12:34:31;13.20;81.20
36924;DHT22;22841;50.252;18.688;2024-02-26T12:36:57;13.10;86.20
36924;DHT22;22841;50.252;18.688;2024-02-26T12:39:24;13.10;88.50
36924;DHT22;22841;50.252;18.688;2024-02-26T12:41:50;13.10;87.20
36924;DHT22;22841;50.252;18.688;2024-02-26T12:44:16;13.10;85.20
36924;DHT22;22841;50.252;18.688;2024-02-26T12:46:43;13.00;85.50
36924;DHT22;22841;50.252;18.688;2024-02-26T12:49:15;13.00;87.00
36924;DHT22;22841;50.252;18.688;2024-02-26T12:51:41;13.10;89.30
36924;DHT22;22841;50.252;18.688;2024-02-26T12:54:08;13.10;84.00
36924;DHT22;22841;50.252;18.688;2024-02-26T12:56:35;13.20;81.50
36924;DHT22;22841;50.252;18.688;2024-02-26T12:59:02;13.30;86.50
36924;DHT22;22841;50.252;18.688;2024-02-26T13:01:29;13.40;85.30
36924;DHT22;22841;50.252;18.688;2024-02-26T13:03:56;13.50;81.00
36924;DHT22;22841;50.252;18.688;2024-02-26T13:06:23;13.50;81.40
36924;DHT22;22841;50.252;18.688;2024-02-26T13:08:49;13.50;80.00
36924;DHT22;22841;50.252;18.688;2024-02-26T13:11:22;13.60;78.30
36924;DHT22;22841;50.252;18.688;2024-02-26T13:13:48;13.40;80.00
36924;DHT22;22841;50.252;18.688;2024-02-26T13:16:15;13.40;81.90
36924;DHT22;22841;50.252;18.688;2024-02-26T13:18:41;13.40;87.00
36924;DHT22;22841;50.252;18.688;2024-02-26T13:21:11;13.40;81.50
36924;DHT22;22841;50.252;18.688;2024-02-26T13:23:38;13.40;81.10
36924;DHT22;22841;50.252;18.688;2024-02-26T13:26:05;13.40;81.80
36924;DHT22;22841;50.252;18.688;2024-02-26T13:28:32;13.30;80.60
36924;DHT22;22841;50.252;18.688;2024-02-26T13:30:58;13.30;80.80
36924;DHT22;22841;50.252;18.688;2024-02-26T13:33:29;13.20;81.10
36924;DHT22;22841;50.252;18.688;2024-02-26T13:35:56;13.20;86.70
36924;DHT22;22841;50.252;18.688;2024-02-26T13:38:23;13.10;87.30
36924;DHT22;22841;50.252;18.688;2024-02-26T13:40:50;13.00;91.50
36924;DHT22;22841;50.252;18.688;2024-02-26T13:43:17;13.10;90.40
36924;DHT22;22841;50.252;18.688;2024-02-26T13:45:43;13.10;85.60
36924;DHT22;22841;50.252;18.688;2024-02-26T13:48:11;13.10;90.90
36924;DHT22;22841;50.252;18.688;2024-02-26T13:50:38;13.00;89.00
36924;DHT22;22841;50.252;18.688;2024-02-26T13:53:05;13.00;91.50
36924;DHT22;22841;50.252;18.688;2024-02-26T13:55:31;12.80;92.10
36924;DHT22;22841;50.252;18.688;2024-02-26T13:57:59;12.80;92.60
36924;DHT22;22841;50.252;18.688;2024-02-26T14:00:30;12.80;91.30
36924;DHT22;22841;50.252;18.688;2024-02-26T14:03:01;12.80;89.90
36924;DHT22;22841;50.252;18.688;2024-02-26T14:05:27;12.80;91.90
36924;DHT22;22841;50.252;18.688;2024-02-26T14:07:54;12.80;93.90
36924;DHT22;22841;50.252;18.688;2024-02-26T14:10:21;12.80;92.40
36924;DHT22;22841;50.252;18.688;2024-02-26T14:12:47;12.70;93.10
36924;DHT22;22841;50.252;18.688;2024-02-26T14:15:13;12.70;93.50
36924;DHT22;22841;50.252;18.688;2024-02-26T14:17:39;12.80;96.00
36924;DHT22;22841;50.252;18.688;2024-02-26T14:20:06;12.70;94.60
36924;DHT22;22841;50.252;18.688;2024-02-26T14:22:34;12.60;96.60
36924;DHT22;22841;50.252;18.688;2024-02-26T14:25:00;12.70;96.30
36924;DHT22;22841;50.252;18.688;2024-02-26T14:27:26;12.60;95.90
36924;DHT22;22841;50.252;18.688;2024-02-26T14:29:52;12.60;97.80
36924;DHT22;22841;50.252;18.688;2024-02-26T14:32:21;12.60;95.30
36924;DHT22;22841;50.252;18.688;2024-02-26T14:34:47;12.60;95.30
36924;DHT22;22841;50.252;18.688;2024-02-26T14:37:13;12.60;95.70
36924;DHT22;22841;50.252;18.688;2024-02-26T14:39:39;12.60;95.30
36924;DHT22;22841;50.252;18.688;2024-02-26T14:42:05;12.60;96.60
36924;DHT22;22841;50.252;18.688;2024-02-26T14:44:32;12.60;97.60
36924;DHT22;22841;50.252;18.688;2024-02-26T14:46:59;12.50;96.80
36924;DHT22;22841;50.252;18.688;2024-02-26T14:49:25;12.50;97.90
36924;DHT22;22841;50.252;18.688;2024-02-26T14:51:51;12.50;97.70
36924;DHT22;22841;50.252;18.688;2024-02-26T14:54:18;12.50;98.40
36924;DHT22;22841;50.252;18.688;2024-02-26T14:56:45;12.40;98.60
36924;DHT22;22841;50.252;18.688;2024-02-26T14:59:11;12.40;99.90
36924;DHT22;22841;50.252;18.688;2024-02-26T15:01:37;12.30;99.90
36924;DHT22;22841;50.252;18.688;2024-02-26T15:04:04;12.30;99.90
36924;DHT22;22841;50.252;18.688;2024-02-26T15:06:30;12.30;99.90
36924;DHT22;22841;50.252;18.688;2024-02-26T15:08:56;12.20;99.90
36924;DHT22;22841;50.252;18.688;2024-02-26T15:11:22;12.20;99.90
36924;DHT22;22841;50.252;18.688;2024-02-26T15:13:48;12.20;99.90
36924;DHT22;22841;50.252;18.688;2024-02-26T15:16:20;12.10;99.90
36924;DHT22;22841;50.252;18.688;2024-02-26T15:18:47;12.10;99.90
36924;DHT22;22841;50.252;18.688;2024-02-26T15:21:13;12.00;99.90
36924;DHT22;22841;50.252;18.688;2024-02-26T15:23:43;12.00;99.90
36924;DHT22;22841;50.252;18.688;2024-02-26T15:26:10;12.00;99.90
36924;DHT22;22841;50.252;18.688;2024-02-26T15:28:36;11.90;99.90
36924;DHT22;22841;50.252;18.688;2024-02-26T15:31:03;11.90;99.90
36924;DHT22;22841;50.252;18.688;2024-02-26T15:33:29;11.80;99.90
36924;DHT22;22841;50.252;18.688;2024-02-26T15:35:55;11.80;99.90
36924;DHT22;22841;50.252;18.688;2024-02-26T15:38:21;11.70;99.90
36924;DHT22;22841;50.252;18.688;2024-02-26T15:40:47;11.70;99.90
36924;DHT22;22841;50.252;18.688;2024-02-26T15:43:13;11.70;99.90
36924;DHT22;22841;50.252;18.688;2024-02-26T15:45:41;11.70;99.90
36924;DHT22;22841;50.252;18.688;2024-02-26T15:48:07;11.60;99.90
36924;DHT22;22841;50.252;18.688;2024-02-26T15:50:33;11.60;99.90
36924;DHT22;22841;50.252;18.688;2024-02-26T15:52:59;11.60;99.90
36924;DHT22;22841;50.252;18.688;2024-02-26T15:55:26;11.50;99.90
36924;DHT22;22841;50.252;18.688;2024-02-26T15:57:52;11.50;99.90
36924;DHT22;22841;50.252;18.688;2024-02-26T16:00:18;11.50;99.90
36924;DHT22;22841;50.252;18.688;2024-02-26T16:02:47;11.40;99.90
36924;DHT22;22841;50.252;18.688;2024-02-26T16:05:15;11.40;99.90
36924;DHT22;22841;50.252;18.688;2024-02-26T16:07:48;11.30;99.90
36924;DHT22;22841;50.252;18.688;2024-02-26T16:10:16;11.30;99.90
36924;DHT22;22841;50.252;18.688;2024-02-26T16:13:00;11.20;99.90
36924;DHT22;22841;50.252;18.688;2024-02-26T16:15:27;11.20;99.90
36924;DHT22;22841;50.252;18.688;2024-02-26T16:17:54;11.10;99.90
36924;DHT22;22841;50.252;18.688;2024-02-26T16:20:22;11.10;99.90
36924;DHT22;22841;50.252;18.688;2024-02-26T16:22:54;11.00;99.90
36924;DHT22;22841;50.252;18.688;2024-02-26T16:25:20;10.90;99.90
36924;DHT22;22841;50.252;18.688;2024-02-26T16:27:47;10.90;99.90
36924;DHT22;22841;50.252;18.688;2024-02-26T16:30:14;10.80;99.90
36924;DHT22;22841;50.252;18.688;2024-02-26T16:32:40;10.80;99.90
36924;DHT22;22841;50.252;18.688;2024-02-26T16:35:08;10.80;99.90
36924;DHT22;22841;50.252;18.688;2024-02-26T16:37:36;10.80;99.90
36924;DHT22;22841;50.252;18.688;2024-02-26T16:40:04;10.70;99.90
36924;DHT22;22841;50.252;18.688;2024-02-26T16:42:31;10.70;99.90
36924;DHT22;22841;50.252;18.688;2024-02-26T16:44:57;10.60;99.90
36924;DHT22;22841;50.252;18.688;2024-02-26T16:47:25;10.60;99.90
36924;DHT22;22841;50.252;18.688;2024-02-26T16:49:51;10.50;99.90
36924;DHT22;22841;50.252;18.688;2024-02-26T16:52:17;10.50;99.90
36924;DHT22;22841;50.252;18.688;2024-02-26T16:54:43;10.50;99.90
36924;DHT22;22841;50.252;18.688;2024-02-26T16:57:09;10.40;99.90
36924;DHT22;22841;50.252;18.688;2024-02-26T16:59:36;10.40;99.90
36924;DHT22;22841;50.252;18.688;2024-02-26T17:02:04;10.30;99.90
36924;DHT22;22841;50.252;18.688;2024-02-26T17:04:30;10.20;99.90
36924;DHT22;22841;50.252;18.688;2024-02-26T17:06:57;10.20;99.90
36924;DHT22;22841;50.252;18.688;2024-02-26T17:09:23;10.20;99.90
36924;DHT22;22841;50.252;18.688;2024-02-26T17:11:49;10.10;99.90